Time;durP1;ratioP1;P1;durP2;ratioP2;P2;SDS_P1;SDS_P2;PMS_P1;PMS_P2;Temp;Humidity;BMP_temperature;BMP_pressure;BME280_temperature;BME280_humidity;BME280_pressure;Samples;Min_cycle;Max_cycle;Signal;HPM_P1;HPM_P2
2022/05/17 00:02:23;;;;;;;10.07;3.88;;;14.50;80.50;;;;;;5091572;28;20020;-72
2022/05/17 00:04:50;;;;;;;10.90;3.60;;;14.50;80.60;;;;;;5092334;28;20449;-73
2022/05/17 00:07:16;;;;;;;7.57;3.38;;;14.50;80.90;;;;;;5091817;28;20032;-73
2022/05/17 00:09:43;;;;;;;7.72;3.42;;;14.40;81.10;;;;;;5091855;28;20059;-73
2022/05/17 00:12:09;;;;;;;6.40;3.22;;;14.40;81.20;;;;;;5092119;28;20024;-72
2022/05/17 00:14:34;;;;;;;12.50;3.70;;;14.50;84.80;;;;;;5091778;28;20086;-73
2022/05/17 00:17:01;;;;;;;13.50;3.78;;;14.70;83.10;;;;;;5091803;28;20512;-72
2022/05/17 00:19:28;;;;;;;7.75;3.05;;;14.80;82.60;;;;;;5091569;28;20027;-72
2022/05/17 00:21:54;;;;;;;6.60;3.35;;;15.10;81.60;;;;;;5092029;28;20487;-72
2022/05/17 00:24:22;;;;;;;10.68;3.35;;;15.20;79.00;;;;;;5092076;28;20028;-72
2022/05/17 00:26:48;;;;;;;8.57;2.92;;;15.30;78.50;;;;;;5091704;28;20020;-72
2022/05/17 00:29:14;;;;;;;10.82;3.35;;;15.30;78.30;;;;;;5091761;28;20032;-72
2022/05/17 00:31:40;;;;;;;9.70;3.35;;;15.40;77.50;;;;;;5087913;28;20020;-72
2022/05/17 00:34:06;;;;;;;7.80;3.00;;;15.40;77.80;;;;;;5095936;28;20537;-72
2022/05/17 00:36:33;;;;;;;4.38;3.03;;;15.40;77.30;;;;;;5096085;28;20057;-72
2022/05/17 00:38:59;;;;;;;9.05;3.45;;;15.30;77.40;;;;;;5095612;28;20559;-72
2022/05/17 00:41:24;;;;;;;7.38;3.55;;;15.30;78.10;;;;;;5095761;28;20119;-72
2022/05/17 00:46:47;;;;;;;5.03;2.72;;;15.20;78.20;;;;;;5097091;28;20031;-72
2022/05/17 00:49:20;;;;;;;7.97;3.65;;;15.10;78.10;;;;;;5095499;28;20371;-72
2022/05/17 00:51:45;;;;;;;11.70;3.25;;;15.10;77.50;;;;;;5095690;28;20513;-71
2022/05/17 00:54:15;;;;;;;8.88;3.13;;;15.10;77.50;;;;;;5095226;28;20028;-72
2022/05/17 00:56:54;;;;;;;7.00;3.20;;;15.10;78.20;;;;;;5078381;28;20028;-72
2022/05/17 00:59:20;;;;;;;6.00;3.13;;;15.10;77.50;;;;;;5095735;28;20657;-72
2022/05/17 01:01:46;;;;;;;6.75;3.30;;;15.00;77.80;;;;;;5095427;28;20024;-72
2022/05/17 01:04:19;;;;;;;8.48;3.58;;;15.20;78.20;;;;;;5097682;28;20455;-72
2022/05/17 01:06:51;;;;;;;8.38;3.20;;;15.10;77.30;;;;;;5079227;28;20016;-71
2022/05/17 01:09:17;;;;;;;7.15;3.55;;;15.20;77.80;;;;;;5096120;28;20028;-72
2022/05/17 01:11:43;;;;;;;7.38;3.20;;;15.10;78.00;;;;;;5095446;28;20387;-72
2022/05/17 01:16:55;;;;;;;5.75;3.20;;;15.00;77.50;;;;;;5096535;28;20061;-72
2022/05/17 01:19:20;;;;;;;7.00;2.97;;;15.00;77.60;;;;;;5094943;28;20032;-72
2022/05/17 01:21:46;;;;;;;8.32;3.38;;;14.80;78.30;;;;;;5094744;28;20040;-72
2022/05/17 01:24:11;;;;;;;9.90;3.15;;;14.70;78.50;;;;;;5094723;28;20024;-71
2022/05/17 01:26:43;;;;;;;13.48;3.30;;;14.80;79.10;;;;;;5094958;28;20059;-72
2022/05/17 01:29:10;;;;;;;7.18;3.42;;;14.90;79.00;;;;;;5094785;28;20028;-71
2022/05/17 01:31:38;;;;;;;10.55;3.55;;;14.80;78.60;;;;;;5094692;28;20062;-71
2022/05/17 01:34:06;;;;;;;11.52;3.47;;;14.80;78.10;;;;;;5094636;28;20161;-71
2022/05/17 01:36:32;;;;;;;6.15;3.47;;;14.60;78.40;;;;;;5094507;28;20020;-71
2022/05/17 01:38:58;;;;;;;8.23;3.85;;;14.60;78.70;;;;;;5094596;28;20058;-72
2022/05/17 01:41:25;;;;;;;9.75;3.95;;;14.70;78.80;;;;;;5094647;28;20013;-72
2022/05/17 01:43:53;;;;;;;10.07;3.90;;;14.70;78.70;;;;;;5095140;28;20070;-72
2022/05/17 01:46:19;;;;;;;7.07;3.85;;;14.70;78.60;;;;;;5094612;28;20024;-72
2022/05/17 01:48:45;;;;;;;8.73;3.55;;;14.60;78.40;;;;;;5077462;28;20024;-72
2022/05/17 01:51:11;;;;;;;14.57;3.85;;;14.70;78.20;;;;;;5094287;28;20115;-72
2022/05/17 01:53:37;;;;;;;8.40;3.10;;;14.60;78.20;;;;;;5094439;28;20044;-72
2022/05/17 01:56:04;;;;;;;11.95;3.60;;;14.50;78.50;;;;;;5094265;28;20066;-72
2022/05/17 01:58:30;;;;;;;10.23;3.42;;;14.40;78.90;;;;;;5093959;28;20039;-72
2022/05/17 02:00:55;;;;;;;11.13;3.92;;;14.20;79.70;;;;;;5061366;28;20024;-72
2022/05/17 02:03:21;;;;;;;10.48;3.88;;;14.10;80.30;;;;;;5096434;28;20391;-72
2022/05/17 02:05:47;;;;;;;6.80;3.42;;;14.20;80.10;;;;;;5094458;28;20078;-72
2022/05/17 02:08:12;;;;;;;6.22;3.22;;;14.10;80.00;;;;;;5093973;28;20039;-72
2022/05/17 02:10:38;;;;;;;7.28;3.28;;;14.20;80.20;;;;;;5094001;28;20107;-74
2022/05/17 02:13:04;;;;;;;11.18;3.80;;;14.20;79.80;;;;;;5093007;28;20068;-73
2022/05/17 02:15:30;;;;;;;7.13;3.65;;;14.10;80.10;;;;;;5093709;28;20062;-73
2022/05/17 02:17:56;;;;;;;10.55;4.13;;;14.00;80.60;;;;;;5093803;28;20063;-73
2022/05/17 02:20:22;;;;;;;11.85;3.40;;;13.90;81.20;;;;;;5093528;28;20055;-73
2022/05/17 02:22:47;;;;;;;9.90;4.15;;;13.70;82.10;;;;;;5093613;28;20024;-73
2022/05/17 02:25:13;;;;;;;7.57;3.75;;;13.60;82.60;;;;;;5093797;28;20035;-72
2022/05/17 02:27:40;;;;;;;9.85;3.50;;;13.50;83.00;;;;;;5093738;28;20020;-72
2022/05/17 02:30:07;;;;;;;9.63;3.58;;;13.50;83.10;;;;;;5093216;28;20027;-73
2022/05/17 02:32:33;;;;;;;13.70;3.88;;;13.50;83.10;;;;;;5093364;28;20581;-72
2022/05/17 02:34:59;;;;;;;9.00;4.22;;;13.40;83.40;;;;;;5092861;28;20036;-72
2022/05/17 02:37:24;;;;;;;7.43;3.22;;;13.40;83.50;;;;;;5093214;28;20039;-72
2022/05/17 02:39:50;;;;;;;6.07;4.05;;;13.40;83.60;;;;;;5093339;28;20060;-72
2022/05/17 02:42:15;;;;;;;9.00;3.65;;;13.40;83.60;;;;;;5084951;28;20396;-73
2022/05/17 02:44:41;;;;;;;6.65;3.63;;;13.40;83.70;;;;;;5059768;28;20020;-73
2022/05/17 02:47:09;;;;;;;9.40;3.60;;;13.30;83.90;;;;;;5092878;28;20024;-73
2022/05/17 02:49:34;;;;;;;8.77;3.50;;;13.30;83.80;;;;;;5093025;28;20391;-73
2022/05/17 02:52:03;;;;;;;10.05;4.35;;;13.30;84.00;;;;;;5094637;28;20028;-72
2022/05/17 02:54:28;;;;;;;8.77;4.25;;;13.20;83.80;;;;;;5092448;28;20467;-73
2022/05/17 02:56:56;;;;;;;11.32;4.00;;;13.20;83.70;;;;;;5092883;28;20078;-73
2022/05/17 02:59:21;;;;;;;10.02;4.45;;;13.20;83.80;;;;;;5060206;28;20036;-73
2022/05/17 03:01:47;;;;;;;9.52;3.92;;;13.20;83.80;;;;;;5093096;28;20047;-73
2022/05/17 03:04:14;;;;;;;9.45;3.70;;;13.20;84.10;;;;;;5092287;28;20055;-73
2022/05/17 03:06:44;;;;;;;10.65;4.47;;;13.20;84.10;;;;;;5092871;28;20392;-73
2022/05/17 03:09:10;;;;;;;14.63;4.55;;;13.10;84.20;;;;;;5092934;28;20093;-73
2022/05/17 03:11:37;;;;;;;8.63;4.00;;;13.00;84.20;;;;;;5094267;28;20040;-73
2022/05/17 03:14:03;;;;;;;6.75;3.63;;;13.00;84.60;;;;;;5092574;28;20024;-73
2022/05/17 03:16:30;;;;;;;10.52;4.00;;;13.00;84.70;;;;;;5092851;28;20052;-73
2022/05/17 03:18:57;;;;;;;8.23;3.55;;;13.00;84.70;;;;;;5092554;28;20119;-72
2022/05/17 03:21:23;;;;;;;7.13;4.00;;;13.00;84.70;;;;;;5092416;28;20048;-73
2022/05/17 03:23:49;;;;;;;9.40;3.67;;;12.90;84.80;;;;;;5092404;28;20098;-73
2022/05/17 03:26:14;;;;;;;7.65;3.53;;;12.90;85.00;;;;;;5092523;28;20534;-73
2022/05/17 03:28:40;;;;;;;9.00;4.15;;;12.90;85.30;;;;;;5087534;28;20038;-73
2022/05/17 03:31:09;;;;;;;8.35;4.05;;;12.90;85.20;;;;;;5092307;28;20460;-73
2022/05/17 03:33:35;;;;;;;6.35;4.05;;;12.90;85.10;;;;;;5093882;28;20024;-73
2022/05/17 03:36:01;;;;;;;8.85;3.55;;;12.90;85.40;;;;;;5092545;28;20464;-73
2022/05/17 03:38:26;;;;;;;8.10;3.95;;;12.80;85.50;;;;;;5092253;28;20043;-73
2022/05/17 03:40:54;;;;;;;6.22;3.83;;;12.80;85.20;;;;;;5092273;28;20479;-73
2022/05/17 03:43:20;;;;;;;7.78;3.67;;;12.80;85.20;;;;;;5092433;28;20046;-73
2022/05/17 03:45:47;;;;;;;6.72;3.80;;;12.80;85.60;;;;;;5091752;28;20056;-72
2022/05/17 03:48:13;;;;;;;7.53;3.78;;;12.80;85.00;;;;;;5091787;28;20035;-73
2022/05/17 03:50:38;;;;;;;6.57;3.88;;;12.80;85.00;;;;;;5091950;28;20020;-74
2022/05/17 03:53:04;;;;;;;7.65;4.05;;;12.80;85.00;;;;;;5091983;28;20115;-74
2022/05/17 03:55:30;;;;;;;8.23;3.63;;;12.70;85.20;;;;;;5091794;28;20503;-73
2022/05/17 03:57:55;;;;;;;7.70;3.75;;;12.70;85.40;;;;;;5092013;28;20337;-74
2022/05/17 04:00:22;;;;;;;12.00;3.70;;;12.70;85.70;;;;;;5091700;28;20027;-73
2022/05/17 04:02:48;;;;;;;9.60;4.20;;;12.70;85.80;;;;;;5092129;28;20024;-73
2022/05/17 04:05:14;;;;;;;10.55;3.90;;;12.70;85.90;;;;;;5091718;28;20020;-73
2022/05/17 04:07:39;;;;;;;9.85;4.20;;;12.70;85.70;;;;;;5091750;28;20561;-73
2022/05/17 04:10:11;;;;;;;7.93;4.10;;;12.80;85.40;;;;;;5091824;28;20020;-73
2022/05/17 04:12:37;;;;;;;7.70;3.75;;;12.80;85.10;;;;;;5091614;28;20388;-73
2022/05/17 04:15:06;;;;;;;7.68;3.72;;;12.80;84.70;;;;;;5091720;28;20016;-73
2022/05/17 04:17:31;;;;;;;9.10;3.47;;;12.80;84.80;;;;;;5091422;28;20055;-73
2022/05/17 04:19:59;;;;;;;9.77;3.95;;;12.80;84.80;;;;;;5092873;28;20067;-73
2022/05/17 04:22:25;;;;;;;7.90;3.80;;;12.80;84.80;;;;;;5091758;28;20065;-73
2022/05/17 04:24:56;;;;;;;8.32;4.07;;;12.90;84.70;;;;;;5091784;28;20443;-73
2022/05/17 04:27:23;;;;;;;10.80;3.90;;;12.90;84.60;;;;;;5091489;28;20020;-73
2022/05/17 04:29:50;;;;;;;8.18;3.83;;;13.00;84.20;;;;;;5091526;28;20020;-73
2022/05/17 04:32:16;;;;;;;12.00;3.92;;;13.10;84.20;;;;;;5091879;28;20052;-73
2022/05/17 04:34:41;;;;;;;5.47;3.67;;;13.10;83.80;;;;;;5091559;28;20028;-73
2022/05/17 04:37:07;;;;;;;7.82;3.55;;;13.10;83.60;;;;;;5091804;28;20456;-73
2022/05/17 04:39:33;;;;;;;12.25;3.83;;;13.20;83.50;;;;;;5091804;28;20457;-74
2022/05/17 04:42:00;;;;;;;14.05;4.03;;;13.10;83.40;;;;;;5091479;28;20031;-73
2022/05/17 04:44:26;;;;;;;11.93;4.20;;;13.10;83.30;;;;;;5091642;28;20085;-73
2022/05/17 04:46:53;;;;;;;8.45;3.63;;;13.10;83.40;;;;;;5093325;28;20020;-74
2022/05/17 04:49:19;;;;;;;10.35;4.30;;;13.10;83.50;;;;;;5094637;28;20035;-74
2022/05/17 04:51:45;;;;;;;7.43;3.33;;;13.20;83.40;;;;;;5092323;28;20031;-73
2022/05/17 04:54:11;;;;;;;7.88;3.72;;;13.20;83.40;;;;;;5092211;28;20024;-73
2022/05/17 04:56:37;;;;;;;7.82;3.80;;;13.30;83.50;;;;;;5091349;28;20031;-73
2022/05/17 04:59:03;;;;;;;9.10;4.07;;;13.40;83.60;;;;;;5091555;28;20032;-73
2022/05/17 05:01:29;;;;;;;8.05;3.45;;;13.50;83.60;;;;;;5091318;28;20016;-73
2022/05/17 05:03:54;;;;;;;7.38;4.03;;;13.50;83.00;;;;;;5091329;28;20028;-74
2022/05/17 05:06:21;;;;;;;10.23;3.72;;;13.60;82.40;;;;;;5091372;28;20597;-74
2022/05/17 05:08:46;;;;;;;5.97;3.72;;;13.70;82.20;;;;;;5091228;28;20080;-73
2022/05/17 05:11:13;;;;;;;11.18;3.60;;;13.80;81.90;;;;;;5091340;28;20504;-73
2022/05/17 05:13:39;;;;;;;5.47;3.28;;;13.80;82.00;;;;;;5091264;28;20031;-73
2022/05/17 05:16:12;;;;;;;7.43;3.80;;;14.00;81.80;;;;;;5091343;28;20028;-73
2022/05/17 05:18:38;;;;;;;9.07;3.92;;;14.10;81.50;;;;;;5093865;28;20035;-73
2022/05/17 05:21:14;;;;;;;13.20;3.88;;;14.20;81.00;;;;;;5060502;28;20163;-73
2022/05/17 05:23:43;;;;;;;8.00;3.58;;;14.40;80.30;;;;;;5077082;28;20154;-73
2022/05/17 05:26:11;;;;;;;5.60;3.47;;;14.50;80.00;;;;;;5093851;28;20034;-73
2022/05/17 05:28:37;;;;;;;13.38;3.38;;;14.60;79.50;;;;;;5093215;28;20028;-73
2022/05/17 05:31:03;;;;;;;8.00;3.50;;;14.70;79.10;;;;;;5094029;28;20081;-73
2022/05/17 05:33:31;;;;;;;8.18;3.90;;;14.80;78.90;;;;;;5093764;28;20023;-73
2022/05/17 05:35:57;;;;;;;9.50;3.15;;;14.90;78.80;;;;;;5093398;28;20022;-73
2022/05/17 05:38:23;;;;;;;6.63;3.00;;;14.90;78.60;;;;;;5093562;28;20028;-73
2022/05/17 05:40:48;;;;;;;6.25;3.50;;;15.10;78.30;;;;;;5093463;28;20078;-72
2022/05/17 05:43:14;;;;;;;8.27;4.45;;;15.30;78.10;;;;;;5093842;28;20027;-73
2022/05/17 05:45:40;;;;;;;9.93;3.67;;;15.50;77.50;;;;;;5089118;28;20053;-72
2022/05/17 05:48:06;;;;;;;6.35;2.92;;;15.70;76.80;;;;;;5093743;28;20024;-72
2022/05/17 05:50:32;;;;;;;4.63;3.05;;;15.80;76.10;;;;;;5093766;28;20078;-73
2022/05/17 05:53:24;;;;;;;12.10;3.25;;;16.00;75.60;;;;;;5093622;28;20027;-72
2022/05/17 05:56:01;;;;;;;9.82;3.60;;;16.10;75.10;;;;;;5052592;28;20033;-73
2022/05/17 05:58:28;;;;;;;7.55;3.35;;;16.10;75.10;;;;;;5056914;28;20047;-73
2022/05/17 06:00:53;;;;;;;8.32;2.72;;;16.20;74.80;;;;;;5057090;28;20025;-73
2022/05/17 06:03:19;;;;;;;8.68;3.53;;;16.30;74.90;;;;;;5056754;28;20389;-73
2022/05/17 06:05:45;;;;;;;7.50;3.50;;;16.40;74.50;;;;;;5057287;28;20028;-73
2022/05/17 06:08:15;;;;;;;12.63;4.05;;;16.60;74.30;;;;;;5056510;28;20025;-72
2022/05/17 06:10:44;;;;;;;7.63;4.03;;;16.70;74.00;;;;;;5056374;28;20487;-72
2022/05/17 06:13:11;;;;;;;11.75;4.35;;;16.80;73.50;;;;;;5056671;28;20115;-74
2022/05/17 06:15:37;;;;;;;8.02;3.20;;;16.90;72.80;;;;;;5056525;28;20025;-74
2022/05/17 06:18:05;;;;;;;7.15;3.47;;;17.00;72.50;;;;;;5055974;28;20036;-72
2022/05/17 06:20:31;;;;;;;6.30;3.35;;;17.20;72.30;;;;;;5056487;28;20052;-74
2022/05/17 06:22:57;;;;;;;8.50;3.78;;;17.40;72.30;;;;;;5056807;28;20025;-72
2022/05/17 06:25:23;;;;;;;9.07;3.45;;;17.60;74.80;;;;;;5056569;28;20369;-72
2022/05/17 06:27:49;;;;;;;8.95;3.42;;;17.90;74.70;;;;;;5056587;28;20035;-72
2022/05/17 06:30:15;;;;;;;6.45;3.30;;;18.20;72.30;;;;;;5056449;28;20021;-73
2022/05/17 06:32:41;;;;;;;8.13;3.00;;;18.30;69.90;;;;;;5056253;28;20090;-71
2022/05/17 06:35:07;;;;;;;7.53;3.03;;;18.50;69.40;;;;;;5074250;28;20025;-73
2022/05/17 06:37:33;;;;;;;6.10;2.90;;;18.60;68.10;;;;;;5074108;28;20119;-72
2022/05/17 06:39:58;;;;;;;8.05;2.85;;;18.70;68.00;;;;;;5056156;28;20435;-71
2022/05/17 06:42:24;;;;;;;5.97;2.92;;;19.00;67.40;;;;;;5073978;28;20381;-71
2022/05/17 06:44:49;;;;;;;8.50;3.03;;;19.10;66.60;;;;;;5055700;28;20469;-72
2022/05/17 06:47:15;;;;;;;6.68;3.20;;;19.30;65.70;;;;;;5055910;28;20035;-72
2022/05/17 06:49:41;;;;;;;6.63;3.22;;;19.50;65.10;;;;;;5073841;28;20079;-72
2022/05/17 06:52:08;;;;;;;6.60;3.17;;;19.70;64.00;;;;;;5073825;28;20032;-71
2022/05/17 06:54:35;;;;;;;6.15;2.85;;;19.90;63.40;;;;;;5073845;28;20021;-71
2022/05/17 06:57:08;;;;;;;7.88;3.28;;;20.10;62.80;;;;;;5073768;28;20025;-71
2022/05/17 06:59:36;;;;;;;6.28;3.22;;;20.30;61.70;;;;;;5073603;28;20021;-71
2022/05/17 07:02:04;;;;;;;9.57;3.63;;;20.40;60.90;;;;;;5073164;28;20024;-71
2022/05/17 07:04:31;;;;;;;4.90;3.00;;;20.60;60.20;;;;;;5072900;28;20025;-71
2022/05/17 07:06:58;;;;;;;11.52;4.50;;;20.70;60.10;;;;;;5073225;28;20025;-71
2022/05/17 07:09:24;;;;;;;8.48;3.85;;;20.70;60.70;;;;;;5055227;28;20449;-71
2022/05/17 07:14:37;;;;;;;6.57;3.38;;;20.80;59.80;;;;;;5073230;28;20035;-71
2022/05/17 07:17:10;;;;;;;8.38;3.80;;;20.80;59.20;;;;;;5072871;28;20476;-72
2022/05/17 07:19:35;;;;;;;7.32;3.90;;;20.80;59.70;;;;;;5073087;28;20527;-71
2022/05/17 07:22:02;;;;;;;9.68;3.97;;;20.80;59.80;;;;;;5072925;28;20048;-71
2022/05/17 07:24:29;;;;;;;9.30;3.53;;;20.30;62.50;;;;;;5072851;28;20035;-71
2022/05/17 07:26:54;;;;;;;6.78;3.72;;;20.40;62.60;;;;;;5073069;28;20457;-73
2022/05/17 07:29:20;;;;;;;7.53;3.70;;;20.60;61.70;;;;;;5072706;28;20059;-72
2022/05/17 07:31:46;;;;;;;9.27;3.83;;;20.60;61.70;;;;;;5073632;28;20032;-71
2022/05/17 07:34:12;;;;;;;6.30;3.08;;;20.70;61.60;;;;;;5073244;28;20029;-73
2022/05/17 07:36:37;;;;;;;6.65;3.42;;;20.90;61.10;;;;;;5072815;28;20016;-72
2022/05/17 07:39:03;;;;;;;10.32;3.95;;;21.20;60.30;;;;;;5072843;28;20099;-72
2022/05/17 07:41:28;;;;;;;6.55;2.80;;;21.30;60.30;;;;;;5072481;28;20029;-72
2022/05/17 07:43:54;;;;;;;13.00;4.13;;;21.50;59.40;;;;;;5072998;28;20028;-72
2022/05/17 07:46:19;;;;;;;9.68;4.03;;;21.40;59.20;;;;;;5072966;28;20039;-71
2022/05/17 07:48:45;;;;;;;7.97;3.53;;;21.30;59.60;;;;;;5072857;28;20047;-71
2022/05/17 07:51:10;;;;;;;7.50;3.70;;;21.40;59.30;;;;;;5072612;28;20036;-72
2022/05/17 07:53:36;;;;;;;7.03;4.25;;;21.50;59.10;;;;;;5054427;28;20485;-72
2022/05/17 07:56:04;;;;;;;9.60;3.35;;;21.50;59.50;;;;;;5054517;28;20029;-71
2022/05/17 07:58:29;;;;;;;7.75;3.70;;;21.50;59.30;;;;;;5072696;28;20028;-71
2022/05/17 08:00:55;;;;;;;7.78;4.03;;;21.80;58.70;;;;;;5072630;28;20071;-72
2022/05/17 08:03:21;;;;;;;7.55;4.07;;;22.00;58.40;;;;;;5072842;28;20028;-72
2022/05/17 08:05:47;;;;;;;7.05;3.40;;;22.10;58.90;;;;;;5072869;28;20021;-71
2022/05/17 08:08:13;;;;;;;6.13;3.53;;;21.80;58.70;;;;;;5072701;28;20380;-71
2022/05/17 08:10:40;;;;;;;6.63;4.32;;;22.00;58.40;;;;;;5072371;28;20032;-74
2022/05/17 08:13:06;;;;;;;7.65;3.92;;;22.00;58.10;;;;;;5072438;28;20024;-75
2022/05/17 08:15:33;;;;;;;7.22;3.92;;;22.00;58.60;;;;;;5072417;28;20481;-73
2022/05/17 08:17:58;;;;;;;5.15;4.05;;;22.10;58.70;;;;;;5072199;28;20063;-73
2022/05/17 08:20:24;;;;;;;6.68;4.20;;;22.10;58.50;;;;;;5072144;28;20032;-74
2022/05/17 08:22:50;;;;;;;7.25;4.25;;;21.90;58.30;;;;;;5072488;28;20025;-73
2022/05/17 08:28:04;;;;;;;9.50;4.40;;;21.90;59.50;;;;;;5073555;28;20444;-74
2022/05/17 08:30:33;;;;;;;7.63;4.55;;;22.00;59.00;;;;;;5072415;28;20100;-73
2022/05/17 08:33:17;;;;;;;7.03;3.92;;;21.90;59.40;;;;;;5054721;28;20047;-74
2022/05/17 08:35:53;;;;;;;7.22;4.10;;;21.80;58.60;;;;;;5072458;28;20031;-74
2022/05/17 08:38:27;;;;;;;6.85;3.90;;;21.90;58.60;;;;;;5072541;28;20091;-73
2022/05/17 08:41:11;;;;;;;10.27;4.68;;;22.10;59.20;;;;;;5072238;28;20020;-73
2022/05/17 08:43:56;;;;;;;7.32;4.00;;;22.10;57.80;;;;;;5072282;28;20028;-73
2022/05/17 08:46:45;;;;;;;13.10;4.70;;;22.00;57.40;;;;;;5072300;28;20029;-73
2022/05/17 08:49:24;;;;;;;7.38;3.83;;;21.90;58.00;;;;;;5072249;28;20389;-73
2022/05/17 08:52:07;;;;;;;10.88;4.22;;;22.10;57.60;;;;;;5072224;28;20067;-74
2022/05/17 08:54:38;;;;;;;9.40;4.05;;;22.00;54.60;;;;;;5076065;28;20025;-73
2022/05/17 08:57:18;;;;;;;5.50;3.00;;;21.80;56.20;;;;;;5075715;28;20025;-74
2022/05/17 08:59:47;;;;;;;4.82;2.80;;;22.00;57.00;;;;;;5076030;28;20103;-74
2022/05/17 09:02:32;;;;;;;13.40;3.90;;;22.30;56.80;;;;;;5075763;28;20465;-73
2022/05/17 09:05:14;;;;;;;6.38;2.80;;;22.40;52.00;;;;;;5076146;28;20512;-74
2022/05/17 09:07:50;;;;;;;5.88;2.75;;;22.50;50.60;;;;;;5075673;28;20024;-75
2022/05/17 09:10:22;;;;;;;4.88;3.03;;;22.60;49.00;;;;;;5075702;28;20086;-73
2022/05/17 09:13:20;;;;;;;6.82;3.00;;;22.40;49.10;;;;;;5075583;28;20425;-73
2022/05/17 09:15:46;;;;;;;7.38;3.05;;;22.40;48.60;;;;;;5075664;28;20032;-74
2022/05/17 09:18:17;;;;;;;3.38;2.50;;;22.40;47.90;;;;;;5057537;28;20439;-74
2022/05/17 09:20:43;;;;;;;5.53;2.55;;;22.60;47.20;;;;;;5075246;28;20048;-74
2022/05/17 09:23:09;;;;;;;4.80;2.58;;;22.80;47.40;;;;;;5075285;28;20115;-74
2022/05/17 09:25:49;;;;;;;4.72;2.67;;;22.80;45.00;;;;;;5075142;28;20025;-74
2022/05/17 09:28:23;;;;;;;6.63;2.72;;;22.90;44.40;;;;;;5075443;28;20029;-74
2022/05/17 09:31:10;;;;;;;6.53;2.92;;;23.00;45.30;;;;;;5075070;28;20016;-74
2022/05/17 09:33:39;;;;;;;5.82;3.20;;;23.00;44.50;;;;;;5074720;28;20028;-73
2022/05/17 09:36:05;;;;;;;4.45;2.60;;;22.70;46.20;;;;;;5074948;28;20028;-73
2022/05/17 09:38:35;;;;;;;9.02;2.65;;;22.90;46.40;;;;;;5074961;28;20028;-73
2022/05/17 09:41:05;;;;;;;7.53;2.53;;;23.00;42.70;;;;;;5074923;28;20428;-73
2022/05/17 09:43:39;;;;;;;6.47;3.70;;;23.20;43.90;;;;;;5074719;28;20024;-73
2022/05/17 09:46:16;;;;;;;6.03;3.10;;;23.50;44.10;;;;;;5074801;28;20021;-73
2022/05/17 09:54:48;;;;;;;6.53;3.00;;;24.00;44.70;;;;;;5074256;28;20035;-76
2022/05/17 09:57:29;;;;;;;5.05;2.17;;;24.10;44.20;;;;;;5056878;28;20469;-75
2022/05/17 10:00:12;;;;;;;4.63;2.53;;;24.20;40.90;;;;;;5074369;28;20024;-75
2022/05/17 10:03:02;;;;;;;5.93;2.83;;;24.40;40.40;;;;;;5074561;28;20048;-75
2022/05/17 10:05:48;;;;;;;8.50;2.83;;;24.30;41.40;;;;;;5074778;28;20046;-75
2022/05/17 10:08:14;;;;;;;3.92;2.65;;;24.00;43.00;;;;;;5074329;28;20516;-74
2022/05/17 10:10:44;;;;;;;7.38;2.90;;;23.70;42.50;;;;;;5074235;28;20020;-77
2022/05/17 10:13:29;;;;;;;9.32;2.60;;;23.80;42.10;;;;;;5056091;28;20480;-73
2022/05/17 10:16:00;;;;;;;9.93;2.90;;;23.70;40.70;;;;;;5056152;28;20392;-73
2022/05/17 10:18:38;;;;;;;6.38;3.17;;;23.90;43.20;;;;;;5073969;28;20036;-73
2022/05/17 10:21:19;;;;;;;5.57;2.53;;;24.10;41.60;;;;;;5073918;28;20401;-74
2022/05/17 10:24:04;;;;;;;5.10;2.55;;;24.30;40.10;;;;;;5073916;28;20024;-75
2022/05/17 10:26:36;;;;;;;4.85;2.83;;;24.30;39.00;;;;;;5073921;28;20051;-74
2022/05/17 10:29:16;;;;;;;5.10;2.67;;;24.30;39.50;;;;;;5074045;28;20034;-73
2022/05/17 10:31:52;;;;;;;4.47;2.50;;;24.60;41.00;;;;;;5074324;28;20029;-74
2022/05/17 10:34:41;;;;;;;7.90;3.13;;;24.90;40.20;;;;;;5074114;28;20077;-74
2022/05/17 10:37:14;;;;;;;4.65;2.67;;;25.20;40.50;;;;;;5074082;28;20024;-74
2022/05/17 10:39:46;;;;;;;4.90;2.10;;;25.50;38.60;;;;;;5074043;28;20488;-74
2022/05/17 10:42:12;;;;;;;5.20;2.42;;;26.00;37.80;;;;;;5073655;28;20060;-74
2022/05/17 10:45:05;;;;;;;3.03;2.17;;;26.20;36.70;;;;;;5055179;28;20025;-74
2022/05/17 10:47:52;;;;;;;4.15;2.33;;;26.40;36.30;;;;;;5069255;28;20108;-74
2022/05/17 10:50:36;;;;;;;5.78;2.47;;;26.40;34.90;;;;;;5073450;28;20457;-74
2022/05/17 10:53:14;;;;;;;4.57;2.78;;;26.60;34.40;;;;;;5055451;28;20443;-74
2022/05/17 10:55:55;;;;;;;4.85;2.20;;;26.70;34.20;;;;;;5055049;28;20113;-73
2022/05/17 10:58:41;;;;;;;3.70;1.73;;;26.70;33.30;;;;;;5081140;28;20064;-77
2022/05/17 11:01:23;;;;;;;4.97;1.70;;;26.10;32.90;;;;;;5075708;28;20108;-74
2022/05/17 11:04:15;;;;;;;6.18;1.90;;;25.60;33.90;;;;;;5072827;28;20358;-82
2022/05/17 11:06:59;;;;;;;3.78;1.90;;;25.30;33.70;;;;;;5073062;28;20161;-76
2022/05/17 11:09:33;;;;;;;2.70;2.00;;;25.40;34.40;;;;;;5073392;28;20021;-74
2022/05/17 11:12:09;;;;;;;3.60;1.73;;;25.50;34.50;;;;;;5073015;28;20025;-74
2022/05/17 11:14:52;;;;;;;3.90;1.60;;;25.70;34.50;;;;;;5072757;28;20070;-74
2022/05/17 11:17:36;;;;;;;2.17;1.38;;;25.90;31.40;;;;;;5055236;28;20078;-75
2022/05/17 11:20:16;;;;;;;4.55;1.65;;;25.90;31.60;;;;;;5073241;28;20077;-74
2022/05/17 11:22:58;;;;;;;3.00;1.65;;;26.00;32.10;;;;;;5073275;28;20063;-74
2022/05/17 11:25:40;;;;;;;2.65;1.42;;;26.10;31.00;;;;;;5073060;28;20198;-75
2022/05/17 11:28:37;;;;;;;5.50;1.60;;;26.30;30.70;;;;;;5072941;28;20028;-74
2022/05/17 11:31:23;;;;;;;5.60;1.40;;;26.60;29.80;;;;;;5072924;28;20062;-74
2022/05/17 11:33:49;;;;;;;3.72;1.30;;;26.70;30.20;;;;;;5073037;28;20028;-74
2022/05/17 11:36:33;;;;;;;2.92;1.52;;;26.50;29.30;;;;;;5072826;28;20101;-74
2022/05/17 11:39:00;;;;;;;3.45;1.60;;;26.80;30.20;;;;;;5054660;28;20039;-74
2022/05/17 11:41:34;;;;;;;2.72;1.30;;;26.60;29.50;;;;;;5072661;28;20100;-75
2022/05/17 11:44:05;;;;;;;5.97;1.60;;;26.50;29.20;;;;;;5054661;28;20362;-74
2022/05/17 11:46:31;;;;;;;3.65;1.13;;;26.20;30.20;;;;;;5072546;28;20021;-74
2022/05/17 11:48:59;;;;;;;4.05;1.30;;;26.30;29.90;;;;;;5072277;28;20048;-74
2022/05/17 11:51:35;;;;;;;2.78;1.00;;;26.80;29.00;;;;;;5072368;28;20024;-75
2022/05/17 11:54:01;;;;;;;1.58;1.08;;;26.90;26.60;;;;;;5072734;28;20016;-74
2022/05/17 11:56:28;;;;;;;3.95;1.52;;;26.80;26.90;;;;;;5072306;28;20177;-75
2022/05/17 11:59:20;;;;;;;2.33;1.13;;;26.90;27.40;;;;;;5072555;28;20063;-74
2022/05/17 12:01:50;;;;;;;8.63;1.70;;;27.00;29.20;;;;;;5054467;28;20025;-75
2022/05/17 12:04:22;;;;;;;3.40;1.40;;;27.20;29.70;;;;;;5072564;28;20055;-74
2022/05/17 12:06:48;;;;;;;3.65;1.33;;;27.60;28.30;;;;;;5055056;28;20028;-75
2022/05/17 12:09:22;;;;;;;1.63;1.25;;;27.20;27.70;;;;;;5073226;28;20382;-74
2022/05/17 12:11:58;;;;;;;2.72;1.38;;;27.00;28.30;;;;;;5072904;28;20025;-74
2022/05/17 12:14:29;;;;;;;3.67;1.40;;;27.20;31.10;;;;;;5072908;28;20024;-75
2022/05/17 12:16:59;;;;;;;2.47;1.35;;;27.20;29.60;;;;;;5072819;28;20027;-75
2022/05/17 12:19:35;;;;;;;2.88;1.38;;;27.20;30.00;;;;;;5072495;28;20110;-74
2022/05/17 12:22:13;;;;;;;3.90;1.50;;;27.50;29.10;;;;;;5072659;28;20397;-81
2022/05/17 12:24:48;;;;;;;5.68;1.40;;;28.10;29.70;;;;;;5072283;28;20452;-76
2022/05/17 12:27:18;;;;;;;2.13;1.20;;;28.00;26.40;;;;;;5074890;28;20429;-75
2022/05/17 12:32:35;;;;;;;3.40;1.40;;;27.80;27.90;;;;;;5077045;28;20036;-75
2022/05/17 12:35:01;;;;;;;2.63;1.50;;;27.80;26.30;;;;;;5076377;28;20122;-75
2022/05/17 12:37:28;;;;;;;2.97;1.55;;;28.10;27.50;;;;;;5076451;28;20460;-75
2022/05/17 12:45:28;;;;;;;4.38;1.95;;;28.70;30.10;;;;;;5076425;28;20093;-75
2022/05/17 12:47:56;;;;;;;2.70;1.92;;;28.90;29.20;;;;;;5076515;28;20050;-76
2022/05/17 12:50:40;;;;;;;3.70;1.35;;;28.70;29.20;;;;;;5076252;28;20043;-75
2022/05/17 12:53:22;;;;;;;5.75;1.67;;;28.60;29.20;;;;;;5076151;28;20036;-75
2022/05/17 12:56:28;;;;;;;4.57;1.75;;;28.30;28.50;;;;;;5075956;28;20024;-75
2022/05/17 12:58:57;;;;;;;5.68;2.05;;;27.70;29.30;;;;;;5075894;28;20036;-77
2022/05/17 13:01:28;;;;;;;1.88;1.58;;;27.70;30.40;;;;;;5075728;28;20150;-75
2022/05/17 13:03:56;;;;;;;4.03;2.03;;;27.60;29.80;;;;;;5075872;28;20066;-75
2022/05/17 13:06:31;;;;;;;6.07;1.90;;;27.20;30.30;;;;;;5075749;28;20032;-75
2022/05/17 13:08:58;;;;;;;3.42;1.40;;;27.50;30.30;;;;;;5057674;28;20074;-75
2022/05/17 13:11:26;;;;;;;2.85;1.70;;;27.70;31.10;;;;;;5075942;28;20388;-75
2022/05/17 13:14:37;;;;;;;3.55;1.60;;;28.20;29.90;;;;;;5075541;28;20020;-75
2022/05/17 13:17:09;;;;;;;2.95;1.73;;;28.40;27.90;;;;;;5051287;28;20079;-76
2022/05/17 13:19:36;;;;;;;2.90;1.75;;;28.10;28.70;;;;;;5075425;28;20030;-74
2022/05/17 13:22:01;;;;;;;3.22;1.40;;;28.20;28.80;;;;;;5075472;28;20048;-75
2022/05/17 13:24:39;;;;;;;5.00;1.42;;;28.50;28.00;;;;;;5057791;28;20384;-74
2022/05/17 13:27:44;;;;;;;6.03;1.63;;;29.00;27.80;;;;;;5075320;28;20025;-75